createdAt,value
2018-08-18T00:01:30.502Z,95281.98
2018-08-18T00:04:05.202Z,95289.67
2018-08-18T00:06:34.431Z,95290.77
2018-08-18T00:09:03.724Z,95286.80
2018-08-18T00:11:32.960Z,95289.22
2018-08-18T00:14:02.204Z,95299.53
2018-08-18T00:16:31.456Z,95290.36
2018-08-18T00:19:01.577Z,95298.03
2018-08-18T00:21:33.221Z,95300.00
2018-08-18T00:24:08.825Z,95303.26
2018-08-18T00:26:38.067Z,95300.94
2018-08-18T00:29:09.099Z,95302.34
2018-08-18T00:31:42.132Z,95298.76
2018-08-18T00:34:11.378Z,95301.88
2018-08-18T00:36:40.575Z,95300.08
2018-08-18T00:39:12.274Z,95300.41
2018-08-18T00:41:41.615Z,95306.43
2018-08-18T00:44:11.799Z,95311.63
2018-08-18T00:46:41.054Z,95314.63
2018-08-18T00:49:10.273Z,95317.75
2018-08-18T00:51:41.922Z,95322.04
2018-08-18T00:54:11.168Z,95307.13
2018-08-18T00:56:41.910Z,95307.93
2018-08-18T00:59:11.159Z,95305.58
2018-08-18T01:01:40.413Z,95310.52
2018-08-18T01:04:10.260Z,95313.36
2018-08-18T01:06:40.715Z,95316.38
2018-08-18T01:09:11.751Z,95317.56
2018-08-18T01:11:41.098Z,95315.73
2018-08-18T01:14:16.608Z,95321.59
2018-08-18T01:16:53.314Z,95327.26
2018-08-18T01:19:23.553Z,95325.33
2018-08-18T01:21:58.586Z,95322.01
2018-08-18T01:24:28.432Z,95322.30
2018-08-18T01:26:59.875Z,95327.64
2018-08-18T01:29:29.127Z,95316.41
2018-08-18T01:31:58.407Z,95323.81
2018-08-18T01:34:27.644Z,95323.52
2018-08-18T01:36:59.962Z,95334.07
2018-08-18T01:39:29.255Z,95331.83
2018-08-18T01:41:58.497Z,95332.26
2018-08-18T01:44:27.736Z,95330.73
2018-08-18T01:46:56.957Z,95331.23
2018-08-18T01:49:32.527Z,95327.05
2018-08-18T01:52:04.300Z,95341.22
2018-08-18T01:54:33.938Z,95338.52
2018-08-18T01:57:10.029Z,95337.78
2018-08-18T01:59:41.486Z,95335.52
2018-08-18T02:02:13.454Z,95331.73
2018-08-18T02:04:43.133Z,95339.16
2018-08-18T02:07:20.651Z,95343.30
2018-08-18T02:09:49.907Z,95337.22
2018-08-18T02:12:19.144Z,95334.16
2018-08-18T02:14:48.408Z,95336.22
2018-08-18T02:17:22.899Z,95340.67
2018-08-18T02:19:52.537Z,95336.47
2018-08-18T02:22:22.251Z,95331.55
2018-08-18T02:24:51.478Z,95333.45
2018-08-18T02:27:20.743Z,95334.94
2018-08-18T02:30:07.371Z,95334.52
2018-08-18T02:32:38.384Z,95336.31
2018-08-18T02:35:08.442Z,95334.52
2018-08-18T02:37:38.927Z,95337.96
2018-08-18T02:40:10.938Z,95346.41
2018-08-18T02:42:40.144Z,95346.11
2018-08-18T02:45:10.532Z,95345.51
2018-08-18T02:47:39.895Z,95353.63
2018-08-18T02:50:10.680Z,95352.36
2018-08-18T02:52:39.913Z,95356.64
2018-08-18T02:55:11.122Z,95356.55
2018-08-18T02:57:44.290Z,95355.50
2018-08-18T03:00:24.281Z,95359.79
2018-08-18T03:02:53.504Z,95359.34
2018-08-18T03:05:22.775Z,95357.65
2018-08-18T03:07:52.899Z,95360.02
2018-08-18T03:10:22.788Z,95361.11
2018-08-18T03:12:55.363Z,95354.05
2018-08-18T03:16:09.547Z,95359.61
2018-08-18T03:18:48.358Z,95358.29
2018-08-18T03:21:17.821Z,95360.55
2018-08-18T03:24:13.052Z,95365.02
2018-08-18T03:26:44.058Z,95368.78
2018-08-18T03:29:14.161Z,95371.95
2018-08-18T03:31:43.735Z,95380.73
2018-08-18T03:34:13.382Z,95372.52
2018-08-18T03:36:44.787Z,95375.53
2018-08-18T03:39:29.655Z,95374.37
2018-08-18T03:42:00.060Z,95375.98
2018-08-18T03:44:29.295Z,95378.48
2018-08-18T03:46:58.535Z,95378.72
2018-08-18T03:49:27.768Z,95377.97
2018-08-18T03:51:57.017Z,95381.72
2018-08-18T03:54:26.255Z,95385.18
2018-08-18T03:56:55.564Z,95390.59
2018-08-18T03:59:24.780Z,95390.47
2018-08-18T04:02:00.942Z,95394.93
2018-08-18T04:04:36.087Z,95398.31
2018-08-18T04:07:06.999Z,95396.45
2018-08-18T04:09:37.406Z,95397.08
2018-08-18T04:12:09.024Z,95392.05
2018-08-18T04:14:42.287Z,95397.24
2018-08-18T04:17:29.154Z,95398.40
2018-08-18T04:19:58.364Z,95396.59
2018-08-18T04:22:27.604Z,95401.27
2018-08-18T04:24:56.871Z,95393.03
2018-08-18T04:27:45.080Z,95393.48
2018-08-18T04:30:18.981Z,95393.94
2018-08-18T04:32:58.919Z,95397.02
2018-08-18T04:35:29.116Z,95404.45
2018-08-18T04:37:59.253Z,95407.43
2018-08-18T04:40:28.472Z,95407.04
2018-08-18T04:42:59.140Z,95410.81
2018-08-18T04:45:28.377Z,95407.58
2018-08-18T04:47:57.627Z,95405.14
2018-08-18T04:50:26.879Z,95410.91
2018-08-18T04:52:56.151Z,95407.05
2018-08-18T04:55:25.387Z,95406.37
2018-08-18T04:57:54.621Z,95411.23
2018-08-18T05:00:25.267Z,95405.21
2018-08-18T05:02:58.724Z,95411.88
2018-08-18T05:05:29.314Z,95412.52
2018-08-18T05:07:59.567Z,95404.20
2018-08-18T05:10:29.253Z,95399.66
2018-08-18T05:12:58.495Z,95395.78
2018-08-18T05:15:27.711Z,95407.62
2018-08-18T05:17:56.936Z,95403.80
2018-08-18T05:20:27.251Z,95406.35
2018-08-18T05:23:05.083Z,95404.12
2018-08-18T05:25:38.400Z,95406.88
2018-08-18T05:28:07.653Z,95395.24
2018-08-18T05:30:36.886Z,95397.16
2018-08-18T05:33:06.123Z,95403.03
2018-08-18T05:35:35.594Z,95391.42
2018-08-18T05:38:06.103Z,95403.44
2018-08-18T05:40:35.556Z,95400.22
2018-08-18T05:43:04.794Z,95406.38
2018-08-18T05:45:34.878Z,95408.77
2018-08-18T05:48:04.152Z,95413.65
2018-08-18T05:50:34.623Z,95411.70
2018-08-18T05:53:21.431Z,95406.03
2018-08-18T05:55:50.923Z,95414.12
2018-08-18T05:58:21.406Z,95416.58
2018-08-18T06:00:54.328Z,95417.84
2018-08-18T06:03:23.571Z,95419.78
2018-08-18T06:05:52.808Z,95419.16
2018-08-18T06:08:22.036Z,95422.56
2018-08-18T06:10:51.307Z,95422.02
2018-08-18T06:13:21.066Z,95422.13
2018-08-18T06:16:09.046Z,95417.77
2018-08-18T06:18:39.297Z,95417.56
2018-08-18T06:21:09.832Z,95421.05
2018-08-18T06:23:39.546Z,95419.05
2018-08-18T06:26:09.202Z,95415.25
2018-08-18T06:28:38.463Z,95415.98
2018-08-18T06:31:07.721Z,95413.70
2018-08-18T06:33:38.180Z,95423.75
2018-08-18T06:36:07.448Z,95425.70
2018-08-18T06:38:36.682Z,95422.05
2018-08-18T06:41:06.107Z,95420.36
2018-08-18T06:43:35.590Z,95423.77
2018-08-18T06:46:04.859Z,95422.17
2018-08-18T06:48:35.734Z,95421.70
2018-08-18T06:51:05.416Z,95426.84
2018-08-18T06:53:39.850Z,95425.20
2018-08-18T06:56:09.274Z,95421.88
2018-08-18T06:58:38.578Z,95433.08
2018-08-18T07:01:08.395Z,95426.94
2018-08-18T07:03:44.754Z,95431.39
2018-08-18T07:06:15.377Z,95431.78
2018-08-18T07:08:58.975Z,95439.91
2018-08-18T07:11:28.626Z,95435.95
2018-08-18T07:13:57.854Z,95435.48
2018-08-18T07:16:27.107Z,95442.45
2018-08-18T07:18:56.323Z,95436.95
2018-08-18T07:21:25.571Z,95439.66
2018-08-18T07:23:54.826Z,95433.13
2018-08-18T07:26:24.067Z,95437.89
2018-08-18T07:28:53.389Z,95434.62
2018-08-18T07:31:22.548Z,95437.36
2018-08-18T07:33:51.787Z,95431.05
2018-08-18T07:36:21.038Z,95435.27
2018-08-18T07:38:50.271Z,95437.39
2018-08-18T07:41:19.818Z,95438.48
2018-08-18T07:43:49.051Z,95434.63
2018-08-18T07:46:18.344Z,95430.29
2018-08-18T07:48:47.543Z,95435.22
2018-08-18T07:51:16.787Z,95436.59
2018-08-18T07:53:46.041Z,95437.13
2018-08-18T07:56:15.281Z,95434.63
2018-08-18T07:58:44.503Z,95434.24
2018-08-18T08:01:13.756Z,95436.16
2018-08-18T08:03:42.984Z,95445.21
2018-08-18T08:06:12.210Z,95445.09
2018-08-18T08:08:46.534Z,95451.33
2018-08-18T08:11:15.773Z,95443.64
2018-08-18T08:13:44.989Z,95445.57
2018-08-18T08:16:14.243Z,95446.97
2018-08-18T08:18:43.480Z,95444.70
2018-08-18T08:21:12.715Z,95445.97
2018-08-18T08:23:41.949Z,95456.59
2018-08-18T08:26:11.541Z,95456.23
2018-08-18T08:28:40.771Z,95458.98
2018-08-18T08:31:10.027Z,95457.89
2018-08-18T08:33:39.764Z,95463.48
2018-08-18T08:36:14.535Z,95458.34
2018-08-18T08:39:00.142Z,95458.47
2018-08-18T08:41:31.332Z,95456.91
2018-08-18T08:44:00.771Z,95452.23
2018-08-18T08:46:29.991Z,95456.14
2018-08-18T08:49:00.845Z,95452.67
2018-08-18T08:51:30.066Z,95461.15
2018-08-18T08:54:00.234Z,95457.45
2018-08-18T08:56:34.638Z,95457.13
2018-08-18T08:59:04.147Z,95450.87
2018-08-18T09:01:33.401Z,95453.48
2018-08-18T09:04:03.074Z,95451.77
2018-08-18T09:06:32.351Z,95446.47
2018-08-18T09:09:01.584Z,95450.77
2018-08-18T09:11:30.847Z,95449.14
2018-08-18T09:14:04.641Z,95449.27
2018-08-18T09:16:34.279Z,95444.51
2018-08-18T09:19:03.504Z,95445.91
2018-08-18T09:21:43.826Z,95445.88
2018-08-18T09:24:13.283Z,95446.47
2018-08-18T09:26:47.665Z,95445.48
2018-08-18T09:29:16.906Z,95448.86
2018-08-18T09:31:46.506Z,95441.28
2018-08-18T09:34:15.910Z,95442.91
2018-08-18T09:36:45.985Z,95442.94
2018-08-18T09:39:22.583Z,95452.26
2018-08-18T09:41:51.810Z,95452.91
2018-08-18T09:44:26.974Z,95448.22
2018-08-18T09:46:56.784Z,95449.02
2018-08-18T09:49:26.189Z,95447.52
2018-08-18T09:51:55.430Z,95439.08
2018-08-18T09:54:25.759Z,95450.05
2018-08-18T09:56:55.173Z,95448.22
2018-08-18T09:59:24.605Z,95448.95
2018-08-18T10:01:54.086Z,95447.52
2018-08-18T10:04:23.352Z,95447.99
2018-08-18T10:06:53.519Z,95445.71
2018-08-18T10:09:22.878Z,95443.81
2018-08-18T10:11:52.115Z,95442.05
2018-08-18T10:14:21.346Z,95449.30
2018-08-18T10:16:50.787Z,95441.95
2018-08-18T10:19:20.036Z,95442.05
2018-08-18T10:21:49.275Z,95448.05
2018-08-18T10:24:18.529Z,95451.13
2018-08-18T10:26:53.501Z,95450.23
2018-08-18T10:29:24.032Z,95443.45
2018-08-18T10:31:55.296Z,95447.85
2018-08-18T10:34:25.700Z,95439.17
2018-08-18T10:36:58.053Z,95440.91
2018-08-18T10:39:27.330Z,95438.81
2018-08-18T10:42:16.815Z,95438.88
2018-08-18T10:44:52.055Z,95445.28
2018-08-18T10:47:22.755Z,95435.47
2018-08-18T10:50:09.021Z,95434.56
2018-08-18T10:52:55.056Z,95438.58
2018-08-18T10:55:24.323Z,95435.24
2018-08-18T10:58:01.095Z,95442.47
2018-08-18T11:00:31.464Z,95436.67
2018-08-18T11:03:02.028Z,95435.55
2018-08-18T11:05:31.639Z,95432.74
2018-08-18T11:08:06.132Z,95437.05
2018-08-18T11:10:37.232Z,95435.04
2018-08-18T11:13:06.517Z,95434.70
2018-08-18T11:15:35.763Z,95429.95
2018-08-18T11:18:05.024Z,95430.13
2018-08-18T11:20:35.120Z,95432.09
2018-08-18T11:23:16.639Z,95426.13
2018-08-18T11:25:53.171Z,95431.13
2018-08-18T11:28:23.133Z,95423.70
2018-08-18T11:30:52.931Z,95423.47
2018-08-18T11:33:40.422Z,95426.92
2018-08-18T11:36:10.528Z,95429.36
2018-08-18T11:38:40.669Z,95432.42
2018-08-18T11:41:09.930Z,95431.41
2018-08-18T11:43:47.150Z,95435.42
2018-08-18T11:46:16.438Z,95421.63
2018-08-18T11:48:45.688Z,95430.13
2018-08-18T11:51:14.923Z,95424.58
2018-08-18T11:53:59.982Z,95425.12
2018-08-18T11:56:29.334Z,95422.56
2018-08-18T11:59:09.048Z,95415.42
2018-08-18T12:01:39.677Z,95411.67
2018-08-18T12:04:08.934Z,95413.84
2018-08-18T12:06:47.339Z,95410.24
2018-08-18T12:09:16.585Z,95414.95
2018-08-18T12:11:47.571Z,95413.16
2018-08-18T12:14:16.909Z,95404.87
2018-08-18T12:16:46.152Z,95406.11
2018-08-18T12:19:15.369Z,95408.54
2018-08-18T12:21:45.619Z,95401.04
2018-08-18T12:24:20.027Z,95404.64
2018-08-18T12:27:08.840Z,95399.61
2018-08-18T12:29:38.158Z,95398.11
2018-08-18T12:32:12.463Z,95397.13
2018-08-18T12:34:41.702Z,95392.77
2018-08-18T12:37:10.924Z,95387.56
2018-08-18T12:39:40.163Z,95392.93
2018-08-18T12:42:10.631Z,95385.48
2018-08-18T12:44:40.851Z,95381.27
2018-08-18T12:47:10.071Z,95384.53
2018-08-18T12:49:40.502Z,95382.16
2018-08-18T12:52:09.698Z,95382.47
2018-08-18T12:54:38.947Z,95376.92
2018-08-18T12:57:08.917Z,95373.70
2018-08-18T12:59:38.117Z,95373.73
2018-08-18T13:02:07.362Z,95364.88
2018-08-18T13:04:36.620Z,95366.53
2018-08-18T13:07:05.923Z,95366.91
2018-08-18T13:09:35.150Z,95363.61
2018-08-18T13:12:04.395Z,95366.12
2018-08-18T13:14:33.651Z,95356.89
2018-08-18T13:17:02.872Z,95358.63
2018-08-18T13:19:34.370Z,95356.16
2018-08-18T13:22:04.089Z,95346.56
2018-08-18T13:24:33.407Z,95347.92
2018-08-18T13:27:03.224Z,95344.36
2018-08-18T13:29:33.216Z,95343.44
2018-08-18T13:32:02.455Z,95345.64
2018-08-18T13:34:32.060Z,95336.11
2018-08-18T13:37:01.295Z,95341.20
2018-08-18T13:39:30.550Z,95338.27
2018-08-18T13:42:10.271Z,95333.05
2018-08-18T13:44:39.485Z,95351.70
2018-08-18T13:47:08.758Z,95342.42
2018-08-18T13:49:38.001Z,95338.03
2018-08-18T13:52:07.252Z,95341.95
2018-08-18T13:54:40.588Z,95334.42
2018-08-18T13:57:10.170Z,95331.38
2018-08-18T13:59:40.927Z,95329.41
2018-08-18T14:02:10.755Z,95332.83
2018-08-18T14:04:41.763Z,95336.41
2018-08-18T14:07:11.115Z,95340.58
2018-08-18T14:09:45.480Z,95332.94
2018-08-18T14:12:15.784Z,95330.50
2018-08-18T14:14:45.628Z,95333.34
2018-08-18T14:17:15.659Z,95327.45
2018-08-18T14:19:44.992Z,95330.45
2018-08-18T14:22:15.954Z,95331.59
2018-08-18T14:24:45.192Z,95326.66
2018-08-18T14:27:18.012Z,95331.11
2018-08-18T14:29:47.267Z,95327.34
2018-08-18T14:32:28.786Z,95333.61
2018-08-18T14:35:07.268Z,95335.38
2018-08-18T14:37:39.918Z,95334.83
2018-08-18T14:40:12.099Z,95335.52
2018-08-18T14:42:41.332Z,95336.30
2018-08-18T14:45:14.456Z,95337.94
2018-08-18T14:47:43.776Z,95334.03
2018-08-18T14:50:23.095Z,95339.95
2018-08-18T14:52:53.041Z,95334.27
2018-08-18T14:55:22.282Z,95335.09
2018-08-18T14:58:06.407Z,95326.23
2018-08-18T15:00:35.638Z,95333.20
2018-08-18T15:03:04.854Z,95327.48
2018-08-18T15:05:34.090Z,95327.56
2018-08-18T15:08:04.290Z,95318.59
2018-08-18T15:10:40.861Z,95322.34
2018-08-18T15:13:10.701Z,95323.87
2018-08-18T15:15:39.955Z,95317.19
2018-08-18T15:18:11.539Z,95321.34
2018-08-18T15:20:41.278Z,95324.61
2018-08-18T15:23:11.206Z,95315.45
2018-08-18T15:25:41.211Z,95318.41
2018-08-18T15:28:12.587Z,95322.71
2018-08-18T15:30:45.143Z,95324.02
2018-08-18T15:33:19.007Z,95313.81
2018-08-18T15:35:48.270Z,95316.25
2018-08-18T15:38:17.559Z,95315.43
2018-08-18T15:40:46.830Z,95308.69
2018-08-18T15:43:16.071Z,95314.36
2018-08-18T15:46:04.862Z,95310.58
2018-08-18T15:48:34.591Z,95310.44
2018-08-18T15:51:03.841Z,95315.25
2018-08-18T15:53:50.543Z,95306.48
2018-08-18T15:56:20.627Z,95306.25
2018-08-18T15:58:50.500Z,95313.81
2018-08-18T16:01:24.732Z,95316.97
2018-08-18T16:03:54.503Z,95317.03
2018-08-18T16:06:23.897Z,95323.23
2018-08-18T16:08:53.546Z,95311.92
2018-08-18T16:11:22.807Z,95313.98
2018-08-18T16:13:52.148Z,95309.14
2018-08-18T16:16:21.272Z,95309.28
2018-08-18T16:18:55.219Z,95311.19
2018-08-18T16:21:25.046Z,95311.09
2018-08-18T16:23:54.310Z,95308.33
2018-08-18T16:26:23.510Z,95303.23
2018-08-18T16:28:53.467Z,95297.02
2018-08-18T16:31:22.722Z,95300.27
2018-08-18T16:33:53.011Z,95294.70
2018-08-18T16:36:22.511Z,95299.85
2018-08-18T16:38:51.736Z,95300.43
2018-08-18T16:41:20.983Z,95296.69
2018-08-18T16:43:51.446Z,95295.87
2018-08-18T16:46:27.682Z,95297.73
2018-08-18T16:48:56.910Z,95300.86
2018-08-18T16:51:26.296Z,95299.76
2018-08-18T16:53:55.519Z,95304.53
2018-08-18T16:56:27.528Z,95306.09
2018-08-18T16:58:59.969Z,95304.45
2018-08-18T17:01:30.452Z,95309.08
2018-08-18T17:03:59.687Z,95308.03
2018-08-18T17:06:28.917Z,95323.33
2018-08-18T17:08:58.167Z,95322.81
2018-08-18T17:11:27.417Z,95324.23
2018-08-18T17:13:59.147Z,95328.37
2018-08-18T17:16:28.404Z,95333.43
2018-08-18T17:18:57.597Z,95334.14
2018-08-18T17:21:26.842Z,95335.42
2018-08-18T17:23:56.079Z,95335.22
2018-08-18T17:26:26.185Z,95337.16
2018-08-18T17:28:55.411Z,95345.13
2018-08-18T17:31:24.656Z,95351.03
2018-08-18T17:33:53.874Z,95345.54
2018-08-18T17:36:23.107Z,95347.32
2018-08-18T17:38:52.330Z,95349.70
2018-08-18T17:41:21.582Z,95349.58
2018-08-18T17:43:50.823Z,95357.73
2018-08-18T17:46:20.039Z,95349.03
2018-08-18T17:48:54.131Z,95356.94
2018-08-18T17:51:23.369Z,95361.00
2018-08-18T17:53:54.654Z,95365.13
2018-08-18T17:56:23.890Z,95369.27
2018-08-18T17:58:53.160Z,95376.91
2018-08-18T18:01:22.405Z,95383.19
2018-08-18T18:03:51.618Z,95387.57
2018-08-18T18:06:22.427Z,95383.89
2018-08-18T18:08:51.825Z,95387.33
2018-08-18T18:11:21.058Z,95385.02
2018-08-18T18:13:50.313Z,95390.00
2018-08-18T18:16:26.925Z,95397.44
2018-08-18T18:18:58.458Z,95393.16
2018-08-18T18:21:27.647Z,95395.48
2018-08-18T18:23:56.892Z,95401.64
2018-08-18T18:26:26.106Z,95402.22
2018-08-18T18:28:55.346Z,95405.03
2018-08-18T18:31:24.585Z,95406.45
2018-08-18T18:33:58.803Z,95412.42
2018-08-18T18:36:28.026Z,95409.30
2018-08-18T18:38:57.839Z,95415.44
2018-08-18T18:41:27.411Z,95419.06
2018-08-18T18:44:03.527Z,95426.52
2018-08-18T18:46:32.777Z,95429.13
2018-08-18T18:49:02.020Z,95427.69
2018-08-18T18:51:31.294Z,95435.89
2018-08-18T18:54:00.521Z,95438.34
2018-08-18T18:56:29.750Z,95437.37
2018-08-18T18:58:58.987Z,95443.05
2018-08-18T19:01:28.227Z,95445.53
2018-08-18T19:03:57.469Z,95450.48
2018-08-18T19:06:26.713Z,95449.67
2018-08-18T19:09:00.351Z,95452.61
2018-08-18T19:11:29.659Z,95450.04
2018-08-18T19:13:59.278Z,95460.11
2018-08-18T19:16:28.511Z,95456.23
2018-08-18T19:18:57.802Z,95457.20
2018-08-18T19:21:32.927Z,95462.31
2018-08-18T19:24:09.653Z,95465.95
2018-08-18T19:26:48.198Z,95462.38
2018-08-18T19:29:17.943Z,95466.44
2018-08-18T19:31:50.810Z,95467.00
2018-08-18T19:34:20.107Z,95471.24
2018-08-18T19:37:03.831Z,95469.62
2018-08-18T19:39:34.235Z,95465.66
2018-08-18T19:42:08.999Z,95468.81
2018-08-18T19:44:41.596Z,95467.37
2018-08-18T19:47:10.836Z,95471.83
2018-08-18T19:49:43.536Z,95469.78
2018-08-18T19:52:14.735Z,95470.85
2018-08-18T19:54:45.295Z,95476.82
2018-08-18T19:57:23.047Z,95478.66
2018-08-18T19:59:52.855Z,95476.83
2018-08-18T20:02:22.141Z,95476.23
2018-08-18T20:04:51.768Z,95476.64
2018-08-18T20:07:20.972Z,95477.17
2018-08-18T20:09:50.198Z,95483.39
2018-08-18T20:12:19.487Z,95474.94
2018-08-18T20:14:48.722Z,95481.95
2018-08-18T20:17:18.022Z,95485.03
2018-08-18T20:19:47.246Z,95478.75
2018-08-18T20:22:16.814Z,95485.37
2018-08-18T20:24:46.119Z,95491.55
2018-08-18T20:27:15.287Z,95493.62
2018-08-18T20:29:44.556Z,95488.79
2018-08-18T20:32:13.778Z,95490.67
2018-08-18T20:34:43.116Z,95495.42
2018-08-18T20:37:12.262Z,95492.55
2018-08-18T20:39:41.486Z,95494.25
2018-08-18T20:42:10.739Z,95496.30
2018-08-18T20:44:39.965Z,95495.26
2018-08-18T20:47:09.195Z,95495.87
2018-08-18T20:49:38.454Z,95496.78
2018-08-18T20:52:07.699Z,95498.33
2018-08-18T20:54:36.938Z,95498.95
2018-08-18T20:57:06.283Z,95507.33
2018-08-18T20:59:35.558Z,95508.72
2018-08-18T21:02:04.815Z,95512.28
2018-08-18T21:04:34.058Z,95516.44
2018-08-18T21:07:03.282Z,95516.36
2018-08-18T21:09:33.479Z,95512.75
2018-08-18T21:12:02.722Z,95520.45
2018-08-18T21:14:31.943Z,95522.62
2018-08-18T21:17:01.199Z,95521.10
2018-08-18T21:19:30.455Z,95525.55
2018-08-18T21:21:59.707Z,95524.05
2018-08-18T21:24:28.978Z,95527.44
2018-08-18T21:26:58.225Z,95519.45
2018-08-18T21:29:27.443Z,95526.05
2018-08-18T21:31:56.668Z,95528.88
2018-08-18T21:34:25.923Z,95523.95
2018-08-18T21:36:55.175Z,95535.02
2018-08-18T21:39:24.393Z,95538.38
2018-08-18T21:41:53.655Z,95543.63
2018-08-18T21:44:23.729Z,95540.99
2018-08-18T21:46:52.969Z,95541.14
2018-08-18T21:49:22.212Z,95536.08
2018-08-18T21:51:51.484Z,95542.30
2018-08-18T21:54:20.694Z,95541.27
2018-08-18T21:56:49.933Z,95550.36
2018-08-18T21:59:19.195Z,95544.22
2018-08-18T22:01:48.428Z,95544.34
2018-08-18T22:04:17.669Z,95537.71
2018-08-18T22:06:46.911Z,95537.77
2018-08-18T22:09:23.078Z,95539.99
2018-08-18T22:11:52.445Z,95537.66
2018-08-18T22:14:21.670Z,95546.92
2018-08-18T22:16:56.855Z,95540.52
2018-08-18T22:19:27.268Z,95538.54
2018-08-18T22:21:56.550Z,95539.25
2018-08-18T22:24:25.912Z,95540.22
2018-08-18T22:26:55.184Z,95541.05
2018-08-18T22:29:25.783Z,95538.57
2018-08-18T22:31:55.060Z,95545.13
2018-08-18T22:34:24.295Z,95544.83
2018-08-18T22:37:01.668Z,95539.72
2018-08-18T22:39:30.938Z,95537.00
2018-08-18T22:42:00.184Z,95537.00
2018-08-18T22:44:29.836Z,95535.61
2018-08-18T22:46:59.074Z,95534.84
2018-08-18T22:49:28.315Z,95526.46
2018-08-18T22:51:57.579Z,95527.98
2018-08-18T22:54:26.820Z,95530.62
2018-08-18T22:57:00.986Z,95533.90
2018-08-18T22:59:30.726Z,95532.89
2018-08-18T23:01:59.972Z,95536.53
2018-08-18T23:04:34.548Z,95541.03
2018-08-18T23:07:05.012Z,95531.12
2018-08-18T23:09:34.271Z,95531.08
2018-08-18T23:12:05.476Z,95533.03
2018-08-18T23:14:36.941Z,95532.20
2018-08-18T23:17:07.965Z,95533.07
2018-08-18T23:19:37.243Z,95532.83
2018-08-18T23:22:06.523Z,95537.53
2018-08-18T23:24:39.183Z,95532.87
2018-08-18T23:27:08.422Z,95528.41
2018-08-18T23:34:45.082Z,95530.26
2018-08-18T23:37:18.378Z,95529.48
2018-08-18T23:39:50.599Z,95528.82
2018-08-18T23:42:22.045Z,95531.47
2018-08-18T23:44:51.278Z,95533.48
2018-08-18T23:47:20.718Z,95530.50
2018-08-18T23:49:49.974Z,95531.50
2018-08-18T23:52:19.227Z,95530.34
2018-08-18T23:54:48.482Z,95529.22
2018-08-18T23:57:18.613Z,95522.25
2018-08-18T23:59:48.138Z,95521.88
